createdAt,value
2023-04-13T00:01:16.335Z,1.65
2023-04-13T00:03:47.993Z,2.47
2023-04-13T00:06:16.931Z,2.10
2023-04-13T00:08:45.003Z,3.20
2023-04-13T00:11:15.047Z,2.05
2023-04-13T00:13:42.955Z,2.47
2023-04-13T00:16:10.336Z,3.92
2023-04-13T00:18:37.016Z,4.47
2023-04-13T00:21:06.833Z,4.88
2023-04-13T00:23:36.169Z,4.30
2023-04-13T00:26:03.017Z,3.00
2023-04-13T00:28:29.992Z,3.80
2023-04-13T00:30:58.328Z,2.17
2023-04-13T00:33:29.492Z,5.15
2023-04-13T00:35:56.359Z,5.95
2023-04-13T00:38:29.786Z,8.43
2023-04-13T00:40:56.511Z,4.85
2023-04-13T00:43:23.433Z,2.67
2023-04-13T00:45:50.294Z,5.35
2023-04-13T00:48:17.228Z,3.20
2023-04-13T00:50:45.078Z,5.68
2023-04-13T00:53:13.666Z,7.78
2023-04-13T00:55:42.650Z,4.22
2023-04-13T00:58:09.465Z,4.45
2023-04-13T01:00:39.631Z,5.80
2023-04-13T01:03:06.981Z,7.18
2023-04-13T01:05:54.099Z,3.45
2023-04-13T01:08:29.446Z,5.07
2023-04-13T01:11:33.083Z,4.00
2023-04-13T01:14:12.304Z,4.80
2023-04-13T01:16:55.049Z,5.25
2023-04-13T01:19:40.730Z,4.70
2023-04-13T01:22:12.615Z,4.32
2023-04-13T01:24:53.668Z,2.33
2023-04-13T01:27:46.966Z,7.63
2023-04-13T01:30:16.789Z,5.95
2023-04-13T01:32:43.834Z,5.45
2023-04-13T01:35:12.942Z,5.22
2023-04-13T01:37:43.147Z,3.10
2023-04-13T01:40:11.296Z,6.57
2023-04-13T01:42:38.979Z,5.18
2023-04-13T01:45:12.718Z,7.97
2023-04-13T01:47:54.422Z,3.13
2023-04-13T01:50:33.946Z,4.15
2023-04-13T01:53:11.351Z,8.07
2023-04-13T01:55:42.702Z,4.03
2023-04-13T01:58:13.064Z,5.60
2023-04-13T02:00:40.429Z,3.80
2023-04-13T02:03:09.692Z,8.93
2023-04-13T02:05:42.665Z,6.13
2023-04-13T02:08:09.664Z,4.70
2023-04-13T02:10:37.676Z,2.97
2023-04-13T02:13:04.456Z,4.22
2023-04-13T02:15:35.570Z,5.55
2023-04-13T02:18:05.396Z,4.25
2023-04-13T02:20:42.740Z,5.63
2023-04-13T02:23:10.360Z,3.63
2023-04-13T02:25:39.569Z,4.60
2023-04-13T02:28:06.291Z,3.92
2023-04-13T02:30:37.490Z,5.00
2023-04-13T02:33:05.273Z,3.85
2023-04-13T02:35:33.011Z,5.80
2023-04-13T02:38:00.540Z,6.63
2023-04-13T02:40:28.384Z,6.00
2023-04-13T02:42:57.231Z,3.50
2023-04-13T02:45:24.045Z,5.28
2023-04-13T02:47:50.686Z,7.15
2023-04-13T02:50:18.230Z,5.22
2023-04-13T02:52:47.123Z,4.35
2023-04-13T02:55:13.772Z,2.90
2023-04-13T02:57:42.291Z,6.75
2023-04-13T03:00:10.562Z,4.18
2023-04-13T03:02:42.426Z,4.47
2023-04-13T03:05:09.727Z,8.60
2023-04-13T03:07:36.638Z,7.90
2023-04-13T03:10:05.581Z,5.55
2023-04-13T03:12:37.581Z,10.13
2023-04-13T03:15:07.746Z,4.30
2023-04-13T03:17:40.313Z,6.68
2023-04-13T03:20:13.204Z,3.75
2023-04-13T03:22:40.235Z,9.35
2023-04-13T03:25:08.438Z,6.75
2023-04-13T03:27:36.276Z,10.10
2023-04-13T03:30:03.776Z,4.72
2023-04-13T03:32:31.468Z,6.00
2023-04-13T03:34:58.585Z,8.30
2023-04-13T03:37:29.966Z,9.68
2023-04-13T03:40:01.533Z,9.00
2023-04-13T03:42:31.990Z,11.02
2023-04-13T03:45:00.804Z,12.73
2023-04-13T03:47:29.641Z,8.30
2023-04-13T03:49:56.350Z,5.55
2023-04-13T03:52:23.079Z,7.80
2023-04-13T03:54:49.967Z,6.32
2023-04-13T03:57:16.778Z,5.60
2023-04-13T03:59:43.457Z,5.75
2023-04-13T04:02:10.188Z,8.40
2023-04-13T04:04:39.292Z,8.00
2023-04-13T04:07:05.948Z,9.45
2023-04-13T04:09:32.773Z,10.70
2023-04-13T04:11:59.553Z,10.82
2023-04-13T04:14:26.169Z,7.63
2023-04-13T04:16:53.016Z,6.13
2023-04-13T04:19:19.745Z,5.72
2023-04-13T04:21:47.084Z,7.15
2023-04-13T04:24:22.460Z,8.60
2023-04-13T04:26:55.075Z,9.75
2023-04-13T04:29:22.166Z,11.90
2023-04-13T04:31:53.479Z,10.15
2023-04-13T04:34:20.833Z,6.40
2023-04-13T04:36:50.955Z,10.13
2023-04-13T04:39:22.282Z,8.25
2023-04-13T04:41:50.125Z,10.73
2023-04-13T04:44:16.894Z,6.68
2023-04-13T04:46:48.962Z,6.55
2023-04-13T04:49:15.623Z,9.98
2023-04-13T04:51:44.751Z,9.75
2023-04-13T04:54:11.433Z,8.95
2023-04-13T04:56:40.865Z,8.13
2023-04-13T04:59:08.189Z,6.55
2023-04-13T05:01:34.961Z,13.50
2023-04-13T05:04:01.858Z,14.13
2023-04-13T05:06:33.236Z,6.75
2023-04-13T05:09:01.977Z,13.15
2023-04-13T05:11:32.247Z,11.82
2023-04-13T05:13:59.853Z,5.63
2023-04-13T05:16:30.511Z,8.23
2023-04-13T05:18:57.855Z,8.02
2023-04-13T05:21:27.520Z,8.90
2023-04-13T05:23:54.266Z,13.70
2023-04-13T05:26:20.871Z,10.27
2023-04-13T05:28:49.709Z,7.97
2023-04-13T05:31:18.913Z,10.10
2023-04-13T05:33:46.497Z,9.95
2023-04-13T05:36:13.513Z,14.98
2023-04-13T05:38:40.186Z,13.00
2023-04-13T05:41:13.044Z,10.35
2023-04-13T05:43:43.038Z,15.68
2023-04-13T05:46:11.278Z,10.63
2023-04-13T05:48:37.930Z,12.88
2023-04-13T05:51:04.847Z,12.70
2023-04-13T05:53:31.571Z,8.38
2023-04-13T05:55:58.490Z,11.63
2023-04-13T05:58:26.274Z,9.63
2023-04-13T06:00:57.674Z,11.80
2023-04-13T06:03:25.829Z,11.43
2023-04-13T06:05:52.844Z,13.88
2023-04-13T06:08:21.698Z,12.75
2023-04-13T06:10:48.971Z,11.18
2023-04-13T06:13:17.767Z,13.50
2023-04-13T06:15:46.906Z,12.15
2023-04-13T06:18:13.653Z,9.77
2023-04-13T06:20:40.428Z,11.77
2023-04-13T06:23:09.772Z,16.63
2023-04-13T06:25:36.727Z,15.75
2023-04-13T06:28:08.446Z,12.38
2023-04-13T06:30:38.115Z,14.00
2023-04-13T06:33:07.948Z,20.33
2023-04-13T06:35:36.197Z,14.02
2023-04-13T06:38:05.184Z,10.07
2023-04-13T06:40:34.709Z,16.38
2023-04-13T06:43:01.404Z,12.93
2023-04-13T06:45:28.296Z,21.25
2023-04-13T06:47:55.015Z,13.30
2023-04-13T06:50:22.270Z,15.15
2023-04-13T06:52:50.123Z,13.82
2023-04-13T06:55:17.720Z,13.35
2023-04-13T06:57:44.860Z,10.88
2023-04-13T07:00:28.177Z,11.75
2023-04-13T07:02:57.950Z,16.65
2023-04-13T07:05:24.776Z,13.88
2023-04-13T07:07:51.665Z,17.63
2023-04-13T07:10:18.428Z,14.25
2023-04-13T07:12:45.078Z,14.23
2023-04-13T07:15:12.059Z,13.00
2023-04-13T07:17:38.798Z,17.80
2023-04-13T07:20:09.402Z,12.48
2023-04-13T07:22:36.225Z,26.85
2023-04-13T07:25:03.044Z,12.18
2023-04-13T07:27:29.691Z,15.82
2023-04-13T07:29:56.576Z,13.75
2023-04-13T07:32:28.129Z,14.55
2023-04-13T07:35:01.266Z,21.75
2023-04-13T07:37:31.037Z,14.93
2023-04-13T07:39:58.234Z,14.23
2023-04-13T07:42:25.499Z,13.32
2023-04-13T07:44:55.976Z,13.43
2023-04-13T07:47:24.848Z,11.10
2023-04-13T07:49:51.528Z,12.40
2023-04-13T07:52:19.000Z,17.15
2023-04-13T07:54:45.658Z,18.30
2023-04-13T07:57:14.876Z,20.02
2023-04-13T07:59:41.673Z,14.00
2023-04-13T08:02:10.970Z,17.55
2023-04-13T08:04:38.136Z,9.27
2023-04-13T08:07:06.033Z,10.60
2023-04-13T08:09:38.652Z,8.52
2023-04-13T08:12:05.699Z,11.85
2023-04-13T08:14:32.537Z,11.45
2023-04-13T08:16:59.996Z,14.35
2023-04-13T08:19:28.195Z,15.68
2023-04-13T08:21:54.830Z,14.20
2023-04-13T08:24:24.217Z,24.42
2023-04-13T08:26:52.622Z,21.10
2023-04-13T08:29:22.231Z,14.88
2023-04-13T08:31:49.060Z,17.15
2023-04-13T08:34:17.021Z,13.27
2023-04-13T08:36:45.816Z,19.65
2023-04-13T08:39:13.311Z,13.38
2023-04-13T08:41:44.001Z,13.73
2023-04-13T08:44:14.951Z,12.68
2023-04-13T08:46:44.309Z,15.07
2023-04-13T08:49:12.302Z,20.67
2023-04-13T08:51:41.928Z,20.25
2023-04-13T08:54:12.769Z,22.23
2023-04-13T08:56:46.079Z,13.82
2023-04-13T08:59:17.057Z,15.48
2023-04-13T09:01:46.541Z,18.30
2023-04-13T09:04:17.849Z,12.93
2023-04-13T09:06:47.791Z,16.92
2023-04-13T09:09:18.376Z,13.60
2023-04-13T09:11:46.160Z,9.43
2023-04-13T09:14:14.848Z,13.98
2023-04-13T09:16:42.776Z,8.15
2023-04-13T09:19:13.852Z,14.68
2023-04-13T09:21:42.759Z,8.68
2023-04-13T09:24:10.524Z,10.40
2023-04-13T09:26:44.673Z,8.18
2023-04-13T09:29:14.495Z,3.90
2023-04-13T09:31:43.530Z,5.20
2023-04-13T09:34:11.961Z,10.82
2023-04-13T09:36:49.681Z,7.97
2023-04-13T09:39:29.555Z,6.75
2023-04-13T09:42:10.261Z,6.45
2023-04-13T09:44:36.948Z,6.00
2023-04-13T09:47:04.920Z,6.43
2023-04-13T09:49:42.931Z,9.77
2023-04-13T09:52:28.093Z,8.68
2023-04-13T09:54:57.767Z,10.48
2023-04-13T09:57:32.352Z,5.63
2023-04-13T10:00:01.516Z,7.43
2023-04-13T10:02:28.854Z,6.97
2023-04-13T10:04:56.416Z,5.47
2023-04-13T10:07:26.798Z,7.43
2023-04-13T10:09:54.303Z,6.32
2023-04-13T10:12:24.957Z,3.97
2023-04-13T10:15:12.143Z,5.35
2023-04-13T10:18:24.875Z,4.30
2023-04-13T10:20:54.016Z,8.93
2023-04-13T10:23:23.373Z,9.02
2023-04-13T10:25:54.264Z,8.02
2023-04-13T10:28:26.267Z,6.72
2023-04-13T10:30:54.280Z,8.60
2023-04-13T10:33:24.007Z,6.28
2023-04-13T10:35:58.494Z,5.00
2023-04-13T10:38:27.897Z,4.32
2023-04-13T10:40:58.550Z,5.68
2023-04-13T10:43:32.282Z,6.30
2023-04-13T10:46:05.844Z,9.57
2023-04-13T10:48:32.711Z,7.03
2023-04-13T10:51:00.002Z,5.53
2023-04-13T10:53:30.464Z,8.90
2023-04-13T10:56:00.099Z,7.63
2023-04-13T10:58:33.155Z,13.85
2023-04-13T11:01:00.640Z,8.55
2023-04-13T11:03:28.638Z,6.85
2023-04-13T11:05:58.331Z,7.50
2023-04-13T11:08:25.225Z,10.48
2023-04-13T11:10:53.580Z,13.02
2023-04-13T11:13:20.974Z,9.15
2023-04-13T11:15:49.282Z,11.27
2023-04-13T11:18:27.370Z,12.20
2023-04-13T11:20:54.810Z,10.05
2023-04-13T11:23:24.521Z,9.52
2023-04-13T11:25:55.080Z,6.55
2023-04-13T11:28:27.833Z,8.55
2023-04-13T11:31:01.940Z,9.60
2023-04-13T11:33:31.619Z,8.20
2023-04-13T11:36:01.129Z,8.63
2023-04-13T11:38:28.839Z,11.40
2023-04-13T11:41:14.970Z,8.25
2023-04-13T11:43:48.316Z,18.48
2023-04-13T11:46:23.091Z,10.60
2023-04-13T11:48:50.453Z,11.88
2023-04-13T11:51:17.370Z,10.63
2023-04-13T11:53:45.377Z,12.18
2023-04-13T11:56:15.556Z,14.55
2023-04-13T11:58:42.863Z,12.68
2023-04-13T12:01:14.388Z,9.38
2023-04-13T12:03:59.213Z,11.38
2023-04-13T12:06:34.026Z,12.68
2023-04-13T12:09:09.166Z,13.90
2023-04-13T12:11:42.235Z,14.52
2023-04-13T12:19:24.457Z,6.63
2023-04-13T12:21:56.823Z,9.32
2023-04-13T12:24:39.497Z,10.18
2023-04-13T12:29:41.804Z,13.68
2023-04-13T12:32:15.099Z,8.43
2023-04-13T12:34:42.886Z,9.02
2023-04-13T12:37:13.012Z,9.02
2023-04-13T12:39:39.635Z,8.18
2023-04-13T12:42:06.456Z,11.25
2023-04-13T12:44:34.407Z,10.48
2023-04-13T12:47:01.675Z,10.07
2023-04-13T12:49:30.638Z,13.07
2023-04-13T12:51:57.315Z,13.02
2023-04-13T12:54:28.566Z,11.38
2023-04-13T12:56:55.400Z,12.55
2023-04-13T12:59:23.388Z,12.88
2023-04-13T13:01:50.471Z,9.82
2023-04-13T13:04:17.641Z,9.00
2023-04-13T13:06:47.606Z,12.25
2023-04-13T13:09:14.462Z,9.13
2023-04-13T13:11:41.973Z,7.63
2023-04-13T13:14:11.089Z,13.30
2023-04-13T13:16:38.157Z,8.02
2023-04-13T13:19:05.043Z,11.63
2023-04-13T13:21:32.397Z,11.32
2023-04-13T13:23:59.089Z,9.45
2023-04-13T13:26:30.374Z,9.55
2023-04-13T13:29:02.262Z,9.43
2023-04-13T13:31:31.365Z,13.35
2023-04-13T13:33:58.081Z,6.45
2023-04-13T13:36:24.741Z,5.90
2023-04-13T13:38:51.398Z,7.32
2023-04-13T13:41:18.209Z,5.80
2023-04-13T13:43:44.851Z,8.05
2023-04-13T13:46:11.841Z,10.55
2023-04-13T13:48:38.518Z,7.75
2023-04-13T13:51:07.000Z,9.88
2023-04-13T13:53:34.423Z,5.65
2023-04-13T13:56:03.831Z,10.20
2023-04-13T13:58:33.158Z,9.30
2023-04-13T14:01:00.060Z,11.20
2023-04-13T14:03:29.085Z,10.25
2023-04-13T14:05:55.917Z,9.50
2023-04-13T14:08:23.195Z,8.32
2023-04-13T14:10:50.256Z,5.32
2023-04-13T14:13:17.094Z,13.07
2023-04-13T14:15:43.995Z,5.53
2023-04-13T14:18:12.870Z,7.57
2023-04-13T14:20:40.127Z,7.35
2023-04-13T14:23:08.927Z,6.47
2023-04-13T14:25:36.668Z,7.05
2023-04-13T14:28:06.796Z,10.73
2023-04-13T14:30:33.615Z,9.95
2023-04-13T14:33:00.809Z,10.50
2023-04-13T14:35:27.721Z,6.55
2023-04-13T14:37:54.508Z,12.07
2023-04-13T14:40:21.971Z,10.60
2023-04-13T14:42:52.596Z,7.93
2023-04-13T14:45:21.012Z,11.02
2023-04-13T14:47:47.766Z,4.90
2023-04-13T14:50:15.495Z,6.10
2023-04-13T14:52:48.893Z,5.20
2023-04-13T14:55:17.040Z,5.97
2023-04-13T14:57:45.130Z,5.25
2023-04-13T15:00:18.152Z,7.10
2023-04-13T15:02:45.169Z,5.07
2023-04-13T15:05:12.628Z,6.68
2023-04-13T15:07:40.195Z,7.20
2023-04-13T15:10:08.415Z,2.38
2023-04-13T15:12:35.248Z,4.68
2023-04-13T15:15:04.072Z,3.83
2023-04-13T15:17:31.291Z,3.55
2023-04-13T15:20:00.630Z,3.63
2023-04-13T15:22:30.970Z,5.10
2023-04-13T15:24:57.880Z,3.67
2023-04-13T15:27:28.211Z,4.78
2023-04-13T15:30:00.064Z,4.00
2023-04-13T15:32:31.812Z,6.63
2023-04-13T15:34:58.843Z,6.25
2023-04-13T15:37:25.722Z,5.22
2023-04-13T15:39:54.989Z,4.68
2023-04-13T15:42:22.660Z,3.55
2023-04-13T15:44:49.679Z,4.07
2023-04-13T15:47:19.075Z,5.78
2023-04-13T15:49:48.240Z,7.05
2023-04-13T15:52:15.120Z,5.20
2023-04-13T15:54:44.302Z,6.80
2023-04-13T15:57:11.000Z,7.45
2023-04-13T15:59:37.776Z,4.95
2023-04-13T16:02:04.724Z,5.88
2023-04-13T16:04:34.253Z,6.18
2023-04-13T16:07:13.090Z,6.55
2023-04-13T16:09:46.711Z,10.35
2023-04-13T16:12:18.347Z,9.00
2023-04-13T16:14:45.538Z,6.47
2023-04-13T16:17:14.994Z,8.63
2023-04-13T16:19:47.329Z,8.43
2023-04-13T16:22:14.277Z,11.25
2023-04-13T16:24:44.043Z,3.35
2023-04-13T16:27:13.612Z,4.55
2023-04-13T16:29:41.731Z,3.38
2023-04-13T16:32:08.543Z,6.60
2023-04-13T16:34:35.411Z,10.63
2023-04-13T16:37:02.717Z,7.75
2023-04-13T16:39:29.520Z,5.38
2023-04-13T16:41:56.438Z,5.88
2023-04-13T16:44:23.053Z,4.70
2023-04-13T16:46:49.997Z,5.78
2023-04-13T16:49:16.768Z,5.68
2023-04-13T16:51:43.832Z,6.18
2023-04-13T16:54:13.754Z,8.60
2023-04-13T16:56:40.914Z,5.93
2023-04-13T16:59:07.662Z,8.43
2023-04-13T17:01:37.244Z,8.93
2023-04-13T17:04:05.944Z,7.88
2023-04-13T17:06:37.507Z,8.55
2023-04-13T17:09:05.687Z,11.38
2023-04-13T17:11:32.837Z,7.95
2023-04-13T17:13:59.905Z,8.50
2023-04-13T17:16:29.249Z,11.02
2023-04-13T17:18:56.813Z,6.82
2023-04-13T17:21:23.752Z,8.27
2023-04-13T17:23:50.549Z,8.57
2023-04-13T17:26:20.157Z,7.97
2023-04-13T17:28:46.851Z,11.25
2023-04-13T17:31:14.421Z,9.30
2023-04-13T17:33:41.173Z,13.50
2023-04-13T17:36:07.871Z,10.20
2023-04-13T17:38:34.520Z,8.63
2023-04-13T17:41:01.731Z,13.40
2023-04-13T17:43:33.227Z,10.15
2023-04-13T17:45:59.968Z,9.70
2023-04-13T17:48:27.155Z,7.68
2023-04-13T17:50:58.403Z,11.55
2023-04-13T17:53:27.901Z,10.18
2023-04-13T17:55:54.960Z,7.38
2023-04-13T17:58:27.049Z,15.02
2023-04-13T18:00:56.036Z,9.57
2023-04-13T18:03:23.388Z,9.02
2023-04-13T18:05:50.709Z,8.05
2023-04-13T18:08:17.714Z,11.13
2023-04-13T18:10:44.775Z,7.40
2023-04-13T18:13:11.819Z,10.35
2023-04-13T18:15:38.856Z,10.27
2023-04-13T18:18:06.134Z,8.73
2023-04-13T18:20:33.200Z,12.40
2023-04-13T18:23:02.391Z,11.55
2023-04-13T18:25:29.497Z,9.65
2023-04-13T18:27:58.875Z,12.77
2023-04-13T18:30:26.200Z,7.03
2023-04-13T18:32:54.758Z,7.40
2023-04-13T18:35:21.704Z,11.27
2023-04-13T18:37:50.754Z,8.63
2023-04-13T18:40:17.932Z,6.50
2023-04-13T18:42:47.418Z,7.10
2023-04-13T18:45:16.981Z,8.48
2023-04-13T18:47:43.886Z,7.93
2023-04-13T18:50:11.513Z,8.50
2023-04-13T18:52:40.413Z,10.80
2023-04-13T18:55:07.480Z,4.97
2023-04-13T18:57:39.083Z,10.80
2023-04-13T19:00:07.408Z,8.40
2023-04-13T19:02:34.630Z,7.40
2023-04-13T19:05:02.068Z,11.57
2023-04-13T19:07:29.072Z,12.32
2023-04-13T19:09:58.263Z,7.25
2023-04-13T19:12:27.507Z,8.20
2023-04-13T19:14:54.483Z,10.07
2023-04-13T19:17:26.660Z,9.70
2023-04-13T19:19:57.369Z,13.25
2023-04-13T19:22:26.895Z,10.27
2023-04-13T19:24:53.845Z,9.65
2023-04-13T19:27:23.588Z,11.50
2023-04-13T19:29:50.413Z,14.48
2023-04-13T19:32:17.669Z,12.63
2023-04-13T19:34:44.567Z,10.23
2023-04-13T19:37:12.181Z,12.38
2023-04-13T19:39:39.613Z,15.75
2023-04-13T19:42:07.023Z,10.50
2023-04-13T19:44:33.920Z,10.40
2023-04-13T19:47:03.674Z,8.40
2023-04-13T19:49:30.593Z,12.30
2023-04-13T19:51:57.578Z,9.82
2023-04-13T19:54:24.475Z,9.75
2023-04-13T19:56:56.624Z,9.70
2023-04-13T19:59:26.585Z,11.00
2023-04-13T20:01:54.283Z,8.30
2023-04-13T20:04:21.506Z,6.25
2023-04-13T20:06:48.244Z,9.50
2023-04-13T20:09:17.476Z,11.25
2023-04-13T20:11:46.497Z,12.57
2023-04-13T20:14:13.740Z,11.88
2023-04-13T20:16:40.611Z,8.95
2023-04-13T20:19:09.414Z,10.27
2023-04-13T20:21:36.517Z,12.65
2023-04-13T20:24:03.899Z,12.88
2023-04-13T20:26:31.351Z,13.43
2023-04-13T20:28:59.540Z,12.00
2023-04-13T20:31:26.239Z,10.77
2023-04-13T20:33:53.032Z,14.80
2023-04-13T20:36:21.533Z,12.57
2023-04-13T20:38:48.838Z,7.97
2023-04-13T20:41:15.893Z,13.50
2023-04-13T20:43:43.833Z,11.57
2023-04-13T20:46:16.423Z,9.05
2023-04-13T20:51:15.955Z,9.30
2023-04-13T20:53:43.016Z,12.77
2023-04-13T20:56:12.626Z,15.75
2023-04-13T20:58:40.820Z,10.05
2023-04-13T21:01:07.808Z,9.73
2023-04-13T21:03:34.643Z,15.65
2023-04-13T21:06:03.857Z,9.63
2023-04-13T21:08:31.525Z,13.88
2023-04-13T21:10:58.245Z,11.93
2023-04-13T21:13:25.033Z,12.07
2023-04-13T21:15:51.663Z,12.10
2023-04-13T21:18:18.374Z,18.77
2023-04-13T21:20:47.477Z,14.60
2023-04-13T21:23:16.333Z,16.63
2023-04-13T21:25:44.360Z,16.05
2023-04-13T21:28:11.297Z,20.55
2023-04-13T21:30:38.005Z,13.25
2023-04-13T21:33:06.885Z,13.70
2023-04-13T21:35:33.557Z,21.73
2023-04-13T21:38:04.199Z,11.93
2023-04-13T21:40:36.677Z,16.52
2023-04-13T21:43:06.027Z,16.67
2023-04-13T21:45:33.050Z,16.02
2023-04-13T21:47:59.806Z,11.13
2023-04-13T21:50:26.577Z,13.88
2023-04-13T21:52:53.340Z,14.20
2023-04-13T21:55:22.380Z,14.98
2023-04-13T21:57:51.329Z,18.92
2023-04-13T22:00:18.152Z,14.55
2023-04-13T22:02:48.172Z,18.23
2023-04-13T22:05:16.718Z,15.20
2023-04-13T22:07:44.295Z,14.60
2023-04-13T22:10:11.425Z,12.23
2023-04-13T22:12:45.348Z,13.43
2023-04-13T22:15:12.033Z,14.15
2023-04-13T22:17:38.860Z,13.68
2023-04-13T22:20:06.073Z,15.93
2023-04-13T22:22:32.833Z,11.85
2023-04-13T22:24:59.773Z,11.48
2023-04-13T22:27:28.858Z,15.52
2023-04-13T22:29:58.461Z,9.23
2023-04-13T22:32:27.367Z,13.70
2023-04-13T22:34:54.258Z,13.88
2023-04-13T22:37:21.333Z,13.73
2023-04-13T22:39:48.015Z,17.77
2023-04-13T22:42:16.894Z,11.50
2023-04-13T22:44:43.498Z,12.68
2023-04-13T22:47:10.307Z,13.10
2023-04-13T22:49:36.958Z,16.42
2023-04-13T22:52:03.768Z,15.65
2023-04-13T22:54:31.702Z,11.68
2023-04-13T22:57:02.035Z,9.75
2023-04-13T22:59:31.107Z,12.07
2023-04-13T23:01:57.991Z,15.35
2023-04-13T23:04:24.791Z,14.57
2023-04-13T23:06:53.960Z,13.48
2023-04-13T23:09:22.724Z,16.05
2023-04-13T23:11:49.538Z,17.58
2023-04-13T23:14:19.692Z,18.42
2023-04-13T23:16:46.559Z,13.68
2023-04-13T23:19:16.450Z,15.63
2023-04-13T23:21:43.166Z,14.10
2023-04-13T23:24:09.893Z,19.65
2023-04-13T23:26:38.852Z,15.07
2023-04-13T23:29:05.744Z,14.85
2023-04-13T23:31:34.686Z,13.77
2023-04-13T23:34:01.327Z,13.68
2023-04-13T23:36:28.346Z,10.98
2023-04-13T23:38:57.584Z,11.63
2023-04-13T23:41:29.272Z,16.95
2023-04-13T23:43:56.433Z,13.07
2023-04-13T23:46:23.998Z,14.05
2023-04-13T23:48:51.134Z,15.23
2023-04-13T23:51:17.791Z,9.63
2023-04-13T23:53:44.460Z,19.48
2023-04-13T23:56:11.237Z,18.60
2023-04-13T23:58:37.841Z,15.73
